createdAt,value
2022-08-08T17:32:58.293Z,16.27
2022-08-08T17:37:53.458Z,40.22
2022-08-08T17:42:57.954Z,32.03
2022-08-08T17:48:04.834Z,34.00
2022-08-08T17:53:13.192Z,25.42
2022-08-08T17:58:16.068Z,21.70
2022-08-08T18:03:19.266Z,19.63
2022-08-08T18:08:40.807Z,17.30
2022-08-08T18:19:02.639Z,15.37
2022-08-08T18:24:11.706Z,17.85
2022-08-08T18:29:25.806Z,13.43
2022-08-08T18:34:35.330Z,14.93
2022-08-08T18:39:42.431Z,13.15
2022-08-08T18:44:55.872Z,9.05
2022-08-08T18:50:02.427Z,10.07
2022-08-08T18:55:10.271Z,12.87
2022-08-08T19:00:21.132Z,9.00
2022-08-08T19:05:34.656Z,6.90
2022-08-08T19:10:41.482Z,8.43
2022-08-08T19:15:46.436Z,7.30
2022-08-08T19:21:30.318Z,7.97
2022-08-08T19:26:30.303Z,6.45
2022-08-08T19:31:37.854Z,7.80
2022-08-08T19:36:46.304Z,9.07
2022-08-08T19:41:49.812Z,11.80
2022-08-08T19:46:53.722Z,7.63
2022-08-08T19:52:01.522Z,6.78
2022-08-08T19:57:07.380Z,7.95
2022-08-08T20:02:15.511Z,7.30
2022-08-08T20:08:28.648Z,6.20
2022-08-08T20:12:40.806Z,6.35
2022-08-08T20:18:05.990Z,7.57
2022-08-08T20:23:19.168Z,7.28
2022-08-08T20:28:25.390Z,7.90
2022-08-08T20:34:26.913Z,7.53
2022-08-08T20:38:57.524Z,3.28
2022-08-08T20:44:01.211Z,5.00
2022-08-08T20:49:07.419Z,3.27
2022-08-08T20:54:27.389Z,3.40
2022-08-08T20:59:41.252Z,3.70
2022-08-08T21:04:50.298Z,4.43
2022-08-08T21:15:10.771Z,10.83
2022-08-08T21:20:22.147Z,8.57
2022-08-08T21:25:25.292Z,8.30
2022-08-08T21:30:39.127Z,8.52
2022-08-08T21:36:14.547Z,11.30
2022-08-08T21:41:09.578Z,11.20
2022-08-08T21:48:07.615Z,11.85
2022-08-08T21:54:32.396Z,11.32
2022-08-08T21:57:30.540Z,13.00
2022-08-08T22:02:49.452Z,12.18
2022-08-08T22:07:52.785Z,11.45
2022-08-08T22:13:19.536Z,11.15
2022-08-08T22:18:27.263Z,12.65
2022-08-08T22:23:32.709Z,15.40
2022-08-08T22:29:12.805Z,13.50
2022-08-08T22:34:12.380Z,11.15
2022-08-08T22:39:19.700Z,11.55
2022-08-08T22:44:22.564Z,13.97
2022-08-08T22:49:28.728Z,15.77
2022-08-08T22:54:58.628Z,12.57
2022-08-08T23:00:04.489Z,13.27
2022-08-08T23:05:38.724Z,12.80
2022-08-08T23:10:33.168Z,13.88
2022-08-08T23:16:38.280Z,14.10
2022-08-08T23:21:04.653Z,14.03
2022-08-08T23:26:56.450Z,14.35
2022-08-08T23:31:38.681Z,14.27
2022-08-08T23:36:44.105Z,13.80
2022-08-08T23:41:50.331Z,13.15
2022-08-08T23:49:00.210Z,13.50
2022-08-08T23:52:16.401Z,15.07
2022-08-08T23:57:27.129Z,14.23
